createdAt,value
2018-08-30T00:01:25.300Z,20.71
2018-08-30T00:03:53.297Z,20.64
2018-08-30T00:06:21.288Z,20.41
2018-08-30T00:08:49.277Z,20.41
2018-08-30T00:11:17.301Z,20.34
2018-08-30T00:13:45.292Z,20.42
2018-08-30T00:16:13.316Z,20.25
2018-08-30T00:18:41.465Z,20.30
2018-08-30T00:21:09.460Z,20.33
2018-08-30T00:23:37.545Z,20.47
2018-08-30T00:26:05.577Z,20.42
2018-08-30T00:28:33.597Z,20.19
2018-08-30T00:31:01.617Z,20.29
2018-08-30T00:33:29.820Z,20.23
2018-08-30T00:35:57.916Z,20.13
2018-08-30T00:38:25.960Z,20.12
2018-08-30T00:40:53.960Z,20.06
2018-08-30T00:43:21.951Z,20.07
2018-08-30T00:45:50.013Z,20.02
2018-08-30T00:48:18.066Z,19.82
2018-08-30T00:50:46.044Z,19.88
2018-08-30T00:53:14.052Z,19.79
2018-08-30T00:55:42.270Z,19.78
2018-08-30T00:58:10.273Z,19.85
2018-08-30T01:00:38.280Z,19.66
2018-08-30T01:03:06.284Z,19.74
2018-08-30T01:05:34.272Z,19.67
2018-08-30T01:08:02.300Z,19.61
2018-08-30T01:10:30.412Z,19.52
2018-08-30T01:12:58.432Z,19.42
2018-08-30T01:15:27.256Z,19.37
2018-08-30T01:17:55.700Z,19.44
2018-08-30T01:20:23.864Z,19.30
2018-08-30T01:22:52.044Z,19.51
2018-08-30T01:25:20.213Z,19.41
2018-08-30T01:27:48.440Z,19.18
2018-08-30T01:30:16.560Z,19.21
2018-08-30T01:32:44.595Z,19.27
2018-08-30T01:35:12.592Z,19.29
2018-08-30T01:37:40.591Z,19.19
2018-08-30T01:40:08.631Z,19.08
2018-08-30T01:42:36.654Z,18.92
2018-08-30T01:45:04.660Z,18.80
2018-08-30T01:47:32.709Z,18.89
2018-08-30T01:50:00.805Z,18.86
2018-08-30T01:52:28.799Z,18.96
2018-08-30T01:54:56.816Z,18.85
2018-08-30T01:57:24.804Z,18.91
2018-08-30T01:59:52.814Z,18.91
2018-08-30T02:02:20.802Z,18.84
2018-08-30T02:04:48.804Z,18.62
2018-08-30T02:07:16.808Z,18.80
2018-08-30T02:09:44.804Z,18.94
2018-08-30T02:12:12.828Z,18.91
2018-08-30T02:14:40.868Z,19.01
2018-08-30T02:17:08.861Z,19.07
2018-08-30T02:19:36.864Z,19.03
2018-08-30T02:22:04.893Z,18.85
2018-08-30T02:24:32.897Z,18.74
2018-08-30T02:27:00.901Z,18.46
2018-08-30T02:29:28.917Z,18.64
2018-08-30T02:31:56.906Z,18.75
2018-08-30T02:34:24.932Z,18.76
2018-08-30T02:36:52.941Z,18.67
2018-08-30T02:39:20.945Z,18.56
2018-08-30T02:41:48.945Z,18.61
2018-08-30T02:44:16.944Z,18.62
2018-08-30T02:46:44.944Z,18.59
2018-08-30T02:49:12.967Z,18.47
2018-08-30T02:51:40.958Z,18.50
2018-08-30T02:54:08.976Z,18.49
2018-08-30T02:56:36.972Z,18.29
2018-08-30T02:59:04.985Z,18.19
2018-08-30T03:01:32.976Z,18.25
2018-08-30T03:04:01.168Z,18.19
2018-08-30T03:06:29.204Z,18.21
2018-08-30T03:08:57.207Z,18.24
2018-08-30T03:11:25.213Z,18.16
2018-08-30T03:13:53.208Z,18.09
2018-08-30T03:16:21.222Z,17.98
2018-08-30T03:18:49.229Z,17.91
2018-08-30T03:21:17.263Z,17.90
2018-08-30T03:23:45.264Z,17.92
2018-08-30T03:26:13.287Z,17.90
2018-08-30T03:28:41.289Z,17.95
2018-08-30T03:31:09.340Z,17.86
2018-08-30T03:33:37.336Z,17.77
2018-08-30T03:36:05.353Z,17.65
2018-08-30T03:38:33.340Z,17.71
2018-08-30T03:41:01.356Z,17.61
2018-08-30T03:43:29.356Z,17.70
2018-08-30T03:45:57.461Z,17.70
2018-08-30T03:48:25.448Z,17.78
2018-08-30T03:50:53.473Z,17.69
2018-08-30T03:53:21.458Z,17.64
2018-08-30T03:55:49.501Z,17.61
2018-08-30T03:58:17.528Z,17.61
2018-08-30T04:00:45.532Z,17.70
2018-08-30T04:03:13.544Z,17.66
2018-08-30T04:05:41.561Z,17.77
2018-08-30T04:08:09.552Z,17.68
2018-08-30T04:10:37.612Z,17.72
2018-08-30T04:13:05.613Z,17.75
2018-08-30T04:15:33.761Z,17.85
2018-08-30T04:18:01.797Z,17.66
2018-08-30T04:20:29.829Z,17.63
2018-08-30T04:22:57.836Z,17.64
2018-08-30T04:25:25.856Z,17.68
2018-08-30T04:27:53.875Z,17.76
2018-08-30T04:30:22.112Z,17.64
2018-08-30T04:32:50.132Z,17.72
2018-08-30T04:35:18.132Z,17.68
2018-08-30T04:37:46.128Z,17.80
2018-08-30T04:40:14.209Z,17.78
2018-08-30T04:42:42.412Z,17.89
2018-08-30T04:45:10.385Z,17.95
2018-08-30T04:47:38.600Z,18.04
2018-08-30T04:50:06.631Z,18.12
2018-08-30T04:52:34.634Z,18.08
2018-08-30T04:55:02.653Z,18.14
2018-08-30T04:57:30.778Z,18.21
2018-08-30T04:59:58.773Z,18.18
2018-08-30T05:02:26.837Z,18.25
2018-08-30T05:04:54.832Z,18.22
2018-08-30T05:07:23.605Z,18.28
2018-08-30T05:09:51.729Z,18.28
2018-08-30T05:12:19.755Z,18.24
2018-08-30T05:14:47.777Z,18.32
2018-08-30T05:17:15.784Z,18.30
2018-08-30T05:19:43.806Z,18.10
2018-08-30T05:22:12.001Z,18.03
2018-08-30T05:24:39.992Z,18.05
2018-08-30T05:27:08.000Z,17.89
2018-08-30T05:29:37.029Z,17.89
2018-08-30T05:32:05.041Z,17.95
2018-08-30T05:34:33.841Z,18.12
2018-08-30T05:37:01.873Z,17.96
2018-08-30T05:39:30.065Z,18.12
2018-08-30T05:41:58.286Z,18.00
2018-08-30T05:44:26.330Z,18.03
2018-08-30T05:46:54.563Z,17.93
2018-08-30T05:49:22.619Z,17.95
2018-08-30T05:51:50.628Z,18.00
2018-08-30T05:54:18.681Z,18.01
2018-08-30T05:56:46.709Z,18.18
2018-08-30T05:59:20.617Z,17.98
2018-08-30T06:01:48.721Z,17.94
2018-08-30T06:04:17.796Z,17.91
2018-08-30T06:06:45.882Z,17.91
2018-08-30T06:09:13.976Z,17.62
2018-08-30T06:11:42.002Z,17.80
2018-08-30T06:14:10.356Z,17.55
2018-08-30T06:16:38.598Z,17.57
2018-08-30T06:19:06.581Z,17.50
2018-08-30T06:21:34.712Z,17.50
2018-08-30T06:24:02.819Z,17.56
2018-08-30T06:26:30.896Z,17.54
2018-08-30T06:28:58.995Z,17.42
2018-08-30T06:31:27.113Z,17.44
2018-08-30T06:33:55.120Z,17.50
2018-08-30T06:36:23.108Z,17.39
2018-08-30T06:38:51.351Z,17.44
2018-08-30T06:41:19.296Z,17.60
2018-08-30T06:43:47.365Z,17.54
2018-08-30T06:46:15.356Z,17.61
2018-08-30T06:48:43.510Z,17.48
2018-08-30T06:51:11.435Z,17.39
2018-08-30T06:53:39.420Z,17.61
2018-08-30T06:56:07.420Z,17.61
2018-08-30T06:58:35.505Z,17.49
2018-08-30T07:01:03.435Z,17.56
2018-08-30T07:03:31.444Z,17.54
2018-08-30T07:05:59.475Z,17.55
2018-08-30T07:08:27.564Z,17.41
2018-08-30T07:10:55.696Z,17.48
2018-08-30T07:13:23.780Z,17.58
2018-08-30T07:15:51.785Z,17.45
2018-08-30T07:18:19.808Z,17.48
2018-08-30T07:20:48.084Z,17.58
2018-08-30T07:23:16.072Z,17.69
2018-08-30T07:25:44.100Z,17.65
2018-08-30T07:28:12.132Z,17.66
2018-08-30T07:30:40.121Z,17.66
2018-08-30T07:33:08.126Z,17.65
2018-08-30T07:35:36.221Z,17.71
2018-08-30T07:38:04.243Z,17.73
2018-08-30T07:40:32.257Z,17.86
2018-08-30T07:43:00.336Z,17.85
2018-08-30T07:45:28.380Z,17.95
2018-08-30T07:47:56.385Z,18.11
2018-08-30T07:50:24.396Z,18.16
2018-08-30T07:52:52.412Z,18.22
2018-08-30T07:55:20.604Z,18.22
2018-08-30T07:57:48.613Z,18.30
2018-08-30T08:00:17.366Z,18.46
2018-08-30T08:02:47.244Z,18.41
2018-08-30T08:05:15.445Z,18.50
2018-08-30T08:07:43.480Z,18.45
2018-08-30T08:10:11.465Z,18.51
2018-08-30T08:12:39.492Z,18.74
2018-08-30T08:15:07.457Z,18.76
2018-08-30T08:17:35.457Z,18.52
2018-08-30T08:20:03.469Z,18.63
2018-08-30T08:27:18.483Z,18.82
2018-08-30T08:29:46.481Z,18.90
2018-08-30T08:32:14.460Z,19.01
2018-08-30T08:34:42.452Z,18.88
2018-08-30T08:37:10.541Z,18.83
2018-08-30T08:39:38.629Z,18.80
2018-08-30T08:42:06.788Z,18.81
2018-08-30T08:44:34.801Z,18.89
2018-08-30T08:47:02.800Z,18.85
2018-08-30T08:49:30.844Z,18.60
2018-08-30T08:51:58.832Z,18.71
2018-08-30T08:54:26.828Z,18.60
2018-08-30T08:56:54.855Z,18.60
2018-08-30T08:59:22.842Z,18.66
2018-08-30T09:01:50.840Z,18.54
2018-08-30T09:04:18.847Z,18.90
2018-08-30T09:06:46.869Z,19.15
2018-08-30T09:09:14.888Z,19.43
2018-08-30T09:11:43.246Z,19.64
2018-08-30T09:14:11.428Z,19.69
2018-08-30T09:16:39.481Z,19.59
2018-08-30T09:19:07.732Z,19.60
2018-08-30T09:21:35.741Z,19.76
2018-08-30T09:24:03.809Z,19.54
2018-08-30T09:26:31.844Z,19.22
2018-08-30T09:28:59.868Z,19.30
2018-08-30T09:31:27.888Z,19.54
2018-08-30T09:33:56.108Z,19.40
2018-08-30T09:36:24.146Z,19.41
2018-08-30T09:38:52.173Z,19.48
2018-08-30T09:41:20.342Z,19.01
2018-08-30T09:43:48.401Z,18.79
2018-08-30T09:46:16.381Z,18.81
2018-08-30T09:48:44.389Z,18.73
2018-08-30T09:51:12.392Z,18.80
2018-08-30T09:53:40.495Z,18.87
2018-08-30T09:56:08.553Z,19.09
2018-08-30T09:58:36.577Z,19.28
2018-08-30T10:01:10.085Z,19.46
2018-08-30T10:03:38.099Z,19.35
2018-08-30T10:06:06.108Z,19.07
2018-08-30T10:08:34.204Z,19.08
2018-08-30T10:11:02.242Z,18.90
2018-08-30T10:13:30.313Z,18.92
2018-08-30T10:15:58.384Z,18.95
2018-08-30T10:18:26.304Z,18.97
2018-08-30T10:20:54.340Z,19.00
2018-08-30T10:23:22.329Z,19.14
2018-08-30T10:25:50.337Z,19.31
2018-08-30T10:28:18.331Z,19.31
2018-08-30T10:30:46.368Z,19.22
2018-08-30T10:33:14.408Z,19.48
2018-08-30T10:35:42.456Z,19.56
2018-08-30T10:38:10.449Z,19.59
2018-08-30T10:40:38.692Z,19.66
2018-08-30T10:43:06.681Z,19.77
2018-08-30T10:45:34.705Z,20.05
2018-08-30T10:48:02.698Z,20.12
2018-08-30T10:50:30.694Z,20.09
2018-08-30T10:52:58.745Z,20.19
2018-08-30T10:55:26.745Z,20.14
2018-08-30T10:57:54.751Z,20.19
2018-08-30T11:00:22.784Z,20.34
2018-08-30T11:02:50.793Z,20.32
2018-08-30T11:05:18.828Z,20.40
2018-08-30T11:07:46.898Z,20.22
2018-08-30T11:10:15.049Z,20.17
2018-08-30T11:12:43.125Z,20.25
2018-08-30T11:15:11.132Z,20.43
2018-08-30T11:17:39.140Z,20.43
2018-08-30T11:20:07.152Z,20.59
2018-08-30T11:22:35.137Z,20.65
2018-08-30T11:25:03.194Z,20.79
2018-08-30T11:27:31.368Z,20.81
2018-08-30T11:29:59.400Z,21.24
2018-08-30T11:32:27.392Z,21.47
2018-08-30T11:34:55.392Z,21.51
2018-08-30T11:37:23.469Z,21.59
2018-08-30T11:39:51.488Z,21.42
2018-08-30T11:42:19.714Z,21.11
2018-08-30T11:44:47.693Z,21.01
2018-08-30T11:47:15.684Z,20.92
2018-08-30T11:49:43.912Z,21.00
2018-08-30T11:52:12.018Z,20.91
2018-08-30T11:54:40.021Z,20.98
2018-08-30T11:57:08.045Z,20.94
2018-08-30T11:59:36.037Z,20.77
2018-08-30T12:02:04.094Z,20.89
2018-08-30T12:04:32.114Z,21.17
2018-08-30T12:07:00.140Z,21.33
2018-08-30T12:09:28.126Z,21.47
2018-08-30T12:11:56.124Z,21.30
2018-08-30T12:14:24.154Z,21.30
2018-08-30T12:16:52.216Z,21.54
2018-08-30T12:19:20.200Z,21.68
2018-08-30T12:21:48.224Z,21.82
2018-08-30T12:24:16.225Z,21.87
2018-08-30T12:26:44.280Z,21.89
2018-08-30T12:29:12.368Z,22.25
2018-08-30T12:31:40.431Z,22.15
2018-08-30T12:34:08.411Z,22.07
2018-08-30T12:36:36.499Z,22.29
2018-08-30T12:39:05.778Z,22.26
2018-08-30T12:41:33.820Z,22.44
2018-08-30T12:44:01.978Z,22.49
2018-08-30T12:46:29.961Z,22.67
2018-08-30T12:48:58.036Z,22.63
2018-08-30T12:51:26.211Z,22.64
2018-08-30T12:53:54.270Z,22.35
2018-08-30T12:56:22.482Z,22.07
2018-08-30T12:58:55.102Z,21.78
2018-08-30T13:01:23.119Z,21.84
2018-08-30T13:03:51.405Z,21.81
2018-08-30T13:06:19.904Z,21.58
2018-08-30T13:08:48.037Z,21.26
2018-08-30T13:11:16.071Z,21.44
2018-08-30T13:13:44.165Z,21.71
2018-08-30T13:16:12.097Z,21.49
2018-08-30T13:18:40.093Z,21.28
2018-08-30T13:21:08.229Z,20.94
2018-08-30T13:23:36.277Z,20.73
2018-08-30T13:26:04.466Z,20.71
2018-08-30T13:28:32.384Z,20.87
2018-08-30T13:31:00.429Z,21.14
2018-08-30T13:33:28.559Z,20.92
2018-08-30T13:35:56.489Z,20.78
2018-08-30T13:38:24.484Z,20.92
2018-08-30T13:40:52.714Z,20.55
2018-08-30T13:43:20.841Z,20.86
2018-08-30T13:45:48.808Z,21.02
2018-08-30T13:48:16.831Z,21.17
2018-08-30T13:50:44.775Z,21.11
2018-08-30T13:53:13.296Z,21.20
2018-08-30T13:55:41.390Z,21.37
2018-08-30T13:58:09.261Z,21.63
2018-08-30T14:00:37.424Z,21.54
2018-08-30T14:03:05.230Z,21.57
2018-08-30T14:05:33.369Z,21.46
2018-08-30T14:08:01.311Z,21.29
2018-08-30T14:10:29.521Z,21.52
2018-08-30T14:12:57.236Z,21.56
2018-08-30T14:15:25.465Z,21.43
2018-08-30T14:17:53.043Z,21.36
2018-08-30T14:20:21.109Z,21.52
2018-08-30T14:22:49.188Z,21.30
2018-08-30T14:25:17.192Z,21.27
2018-08-30T14:27:45.278Z,21.06
2018-08-30T14:30:13.343Z,21.08
2018-08-30T14:32:41.358Z,20.84
2018-08-30T14:35:09.353Z,20.73
2018-08-30T14:37:37.391Z,20.58
2018-08-30T14:40:05.457Z,20.48
2018-08-30T14:42:33.373Z,20.27
2018-08-30T14:45:01.380Z,20.13
2018-08-30T14:47:29.494Z,20.31
2018-08-30T14:49:57.432Z,20.37
2018-08-30T14:52:25.413Z,20.36
2018-08-30T14:54:53.405Z,20.35
2018-08-30T14:57:21.416Z,20.25
2018-08-30T14:59:49.402Z,20.38
2018-08-30T15:02:17.408Z,20.66
2018-08-30T15:04:45.396Z,20.75
2018-08-30T15:07:13.445Z,20.98
2018-08-30T15:09:41.468Z,21.08
2018-08-30T15:12:09.639Z,21.14
2018-08-30T15:14:37.580Z,20.95
2018-08-30T15:17:05.667Z,21.03
2018-08-30T15:19:33.692Z,20.72
2018-08-30T15:22:01.716Z,20.72
2018-08-30T15:24:29.713Z,20.43
2018-08-30T15:26:57.779Z,20.37
2018-08-30T15:29:25.821Z,20.70
2018-08-30T15:31:53.718Z,20.74
2018-08-30T15:34:21.708Z,20.87
2018-08-30T15:36:49.713Z,21.00
2018-08-30T15:39:17.754Z,20.82
2018-08-30T15:41:45.802Z,20.39
2018-08-30T15:44:13.849Z,20.36
2018-08-30T15:46:41.912Z,20.14
2018-08-30T15:49:09.910Z,20.16
2018-08-30T15:51:37.981Z,20.15
2018-08-30T15:54:06.193Z,19.85
2018-08-30T15:56:34.224Z,19.84
2018-08-30T15:59:02.371Z,19.93
2018-08-30T16:01:30.317Z,20.09
2018-08-30T16:03:58.333Z,20.13
2018-08-30T16:06:26.370Z,20.09
2018-08-30T16:08:54.433Z,19.85
2018-08-30T16:11:22.519Z,19.61
2018-08-30T16:13:50.565Z,19.49
2018-08-30T16:16:18.757Z,19.42
2018-08-30T16:18:46.870Z,19.11
2018-08-30T16:21:14.821Z,19.01
2018-08-30T16:23:43.017Z,18.86
2018-08-30T16:26:11.024Z,18.79
2018-08-30T16:28:39.100Z,18.66
2018-08-30T16:31:07.131Z,18.49
2018-08-30T16:33:35.147Z,18.53
2018-08-30T16:36:03.193Z,18.71
2018-08-30T16:38:31.176Z,18.80
2018-08-30T16:40:59.293Z,18.65
2018-08-30T16:43:27.330Z,18.85
2018-08-30T16:45:55.402Z,18.79
2018-08-30T16:48:23.395Z,18.56
2018-08-30T16:50:51.428Z,18.63
2018-08-30T16:53:19.462Z,18.78
2018-08-30T16:55:47.406Z,18.92
2018-08-30T16:58:15.416Z,19.09
2018-08-30T17:00:43.501Z,19.06
2018-08-30T17:03:11.549Z,19.20
2018-08-30T17:05:39.617Z,19.07
2018-08-30T17:08:07.672Z,19.16
2018-08-30T17:10:35.688Z,19.20
2018-08-30T17:13:03.702Z,19.16
2018-08-30T17:15:32.757Z,19.24
2018-08-30T17:18:00.768Z,19.28
2018-08-30T17:20:34.404Z,19.24
2018-08-30T17:23:02.391Z,19.24
2018-08-30T17:25:30.485Z,18.95
2018-08-30T17:27:58.645Z,18.88
2018-08-30T17:30:26.691Z,18.73
2018-08-30T17:32:54.685Z,18.60
2018-08-30T17:35:22.960Z,18.52
2018-08-30T17:37:51.004Z,18.56
2018-08-30T17:40:19.041Z,18.62
2018-08-30T17:42:47.384Z,18.57
2018-08-30T17:45:15.436Z,18.59
2018-08-30T17:47:43.597Z,18.47
2018-08-30T17:50:11.650Z,18.51
2018-08-30T17:52:39.606Z,18.47
2018-08-30T17:55:07.836Z,18.37
2018-08-30T17:57:35.895Z,18.31
2018-08-30T18:00:05.905Z,18.24
2018-08-30T18:02:33.904Z,18.01
2018-08-30T18:05:01.907Z,17.89
2018-08-30T18:07:29.900Z,17.97
2018-08-30T18:09:57.917Z,17.94
2018-08-30T18:12:26.293Z,18.05
2018-08-30T18:14:54.211Z,18.08
2018-08-30T18:17:22.208Z,18.05
2018-08-30T18:19:50.282Z,17.93
2018-08-30T18:22:18.289Z,17.78
2018-08-30T18:24:46.280Z,17.87
2018-08-30T18:27:14.294Z,17.88
2018-08-30T18:29:42.484Z,17.87
2018-08-30T18:32:10.512Z,17.83
2018-08-30T18:34:38.513Z,17.73
2018-08-30T18:37:06.653Z,17.55
2018-08-30T18:39:34.665Z,17.60
2018-08-30T18:42:02.684Z,17.56
2018-08-30T18:44:30.685Z,17.48
2018-08-30T18:46:58.692Z,17.34
2018-08-30T18:49:26.693Z,17.09
2018-08-30T18:51:54.684Z,17.11
2018-08-30T18:54:22.703Z,16.94
2018-08-30T18:56:50.721Z,16.85
2018-08-30T18:59:18.705Z,16.91
2018-08-30T19:01:46.764Z,16.79
2018-08-30T19:04:14.709Z,16.79
2018-08-30T19:06:42.713Z,16.79
2018-08-30T19:09:11.833Z,16.67
2018-08-30T19:11:40.318Z,16.74
2018-08-30T19:14:08.324Z,16.74
2018-08-30T19:16:41.917Z,16.61
2018-08-30T19:19:12.077Z,16.58
2018-08-30T19:21:40.200Z,16.50
2018-08-30T19:24:12.384Z,16.54
2018-08-30T19:26:40.592Z,16.44
2018-08-30T19:29:08.607Z,16.49
2018-08-30T19:31:36.676Z,16.53
2018-08-30T19:34:04.782Z,16.47
2018-08-30T19:36:33.116Z,16.41
2018-08-30T19:39:02.020Z,16.39
2018-08-30T19:41:30.139Z,16.35
2018-08-30T19:43:58.104Z,16.35
2018-08-30T19:46:26.110Z,16.26
2018-08-30T19:48:54.126Z,16.10
2018-08-30T19:51:22.165Z,16.08
2018-08-30T19:53:50.198Z,16.14
2018-08-30T19:56:18.201Z,16.08
2018-08-30T19:58:46.237Z,16.05
2018-08-30T20:01:14.273Z,16.09
2018-08-30T20:03:42.249Z,16.10
2018-08-30T20:06:17.044Z,16.11
2018-08-30T20:08:45.109Z,16.01
2018-08-30T20:11:13.232Z,15.87
2018-08-30T20:13:41.324Z,15.71
2018-08-30T20:16:09.460Z,15.68
2018-08-30T20:18:37.509Z,15.71
2018-08-30T20:21:05.541Z,15.64
2018-08-30T20:23:33.609Z,15.57
2018-08-30T20:26:01.798Z,15.41
2018-08-30T20:28:29.858Z,15.33
2018-08-30T20:30:57.913Z,15.33
2018-08-30T20:33:26.008Z,15.36
2018-08-30T20:35:54.023Z,15.35
2018-08-30T20:38:22.258Z,15.31
2018-08-30T20:40:50.432Z,15.29
2018-08-30T20:43:18.444Z,15.23
2018-08-30T20:45:46.451Z,15.23
2018-08-30T20:48:14.449Z,15.23
2018-08-30T20:50:42.452Z,15.00
2018-08-30T20:53:10.539Z,15.08
2018-08-30T20:55:38.570Z,15.01
2018-08-30T20:58:06.691Z,14.80
2018-08-30T21:00:34.695Z,14.83
2018-08-30T21:03:02.796Z,14.82
2018-08-30T21:05:30.836Z,14.87
2018-08-30T21:07:58.880Z,14.85
2018-08-30T21:10:26.908Z,14.76
2018-08-30T21:12:54.909Z,14.74
2018-08-30T21:15:22.946Z,14.82
2018-08-30T21:17:50.948Z,14.74
2018-08-30T21:20:18.947Z,14.65
2018-08-30T21:22:47.004Z,14.59
2018-08-30T21:25:15.000Z,14.50
2018-08-30T21:27:43.074Z,14.53
2018-08-30T21:30:11.113Z,14.55
2018-08-30T21:32:39.113Z,14.54
2018-08-30T21:35:07.169Z,14.67
2018-08-30T21:37:35.176Z,14.66
2018-08-30T21:40:03.213Z,14.62
2018-08-30T21:42:31.284Z,14.60
2018-08-30T21:44:59.307Z,14.49
2018-08-30T21:47:27.298Z,14.53
2018-08-30T21:49:55.421Z,14.47
2018-08-30T21:52:23.429Z,14.44
2018-08-30T21:54:51.438Z,14.36
2018-08-30T21:57:19.561Z,14.27
2018-08-30T21:59:47.592Z,14.36
2018-08-30T22:02:15.625Z,14.36
2018-08-30T22:04:43.613Z,14.39
2018-08-30T22:07:11.609Z,14.46
2018-08-30T22:09:39.608Z,14.42
2018-08-30T22:12:07.618Z,14.33
2018-08-30T22:14:35.621Z,14.33
2018-08-30T22:17:03.716Z,14.33
2018-08-30T22:19:31.824Z,14.34
2018-08-30T22:21:59.821Z,14.36
2018-08-30T22:24:27.855Z,14.40
2018-08-30T22:26:55.902Z,14.40
2018-08-30T22:29:23.941Z,14.39
2018-08-30T22:31:51.979Z,14.32
2018-08-30T22:34:20.140Z,14.19
2018-08-30T22:36:48.137Z,14.20
2018-08-30T22:39:16.144Z,14.21
2018-08-30T22:41:44.120Z,14.04
2018-08-30T22:44:12.128Z,14.03
2018-08-30T22:46:40.129Z,13.97
2018-08-30T22:49:08.134Z,13.94
2018-08-30T22:51:36.189Z,14.00
2018-08-30T22:54:04.253Z,13.96
2018-08-30T22:56:32.240Z,13.91
2018-08-30T22:59:00.524Z,13.93
2018-08-30T23:01:28.529Z,14.01
2018-08-30T23:03:56.541Z,13.99
2018-08-30T23:06:24.537Z,13.96
2018-08-30T23:08:52.529Z,13.89
2018-08-30T23:11:20.524Z,13.93
2018-08-30T23:13:48.568Z,14.02
2018-08-30T23:16:16.595Z,13.99
2018-08-30T23:18:44.603Z,13.92
2018-08-30T23:21:12.627Z,13.85
2018-08-30T23:23:40.627Z,13.92
2018-08-30T23:26:08.616Z,13.99
2018-08-30T23:28:36.660Z,14.02
2018-08-30T23:31:04.688Z,14.06
2018-08-30T23:33:32.769Z,14.10
2018-08-30T23:36:00.787Z,14.08
2018-08-30T23:38:28.773Z,13.94
2018-08-30T23:40:56.761Z,13.73
2018-08-30T23:43:24.805Z,13.67
2018-08-30T23:45:52.818Z,13.64
2018-08-30T23:48:20.816Z,13.45
2018-08-30T23:50:48.824Z,13.55
2018-08-30T23:53:16.822Z,13.33
2018-08-30T23:55:44.912Z,13.09
2018-08-30T23:58:24.424Z,13.24
